Time;durP1;ratioP1;P1;durP2;ratioP2;P2;SDS_P1;SDS_P2;PMS_P1;PMS_P2;Temp;Humidity;BMP_temperature;BMP_pressure;BME280_temperature;BME280_humidity;BME280_pressure;Samples;Min_cycle;Max_cycle;Signal;HPM_P1;HPM_P2
2022/11/15 00:00:28;;;;;;;18.00;11.15;;;;;;;6.42;100.00;100326.47;5223196;28;20025;-73
2022/11/15 00:02:58;;;;;;;19.02;11.45;;;;;;;6.34;100.00;100333.53;5223053;28;20064;-73
2022/11/15 00:05:28;;;;;;;19.45;11.07;;;;;;;6.39;100.00;100339.50;5222758;28;20032;-73
2022/11/15 00:07:58;;;;;;;17.95;10.80;;;;;;;6.42;100.00;100327.28;5207616;28;20021;-73
2022/11/15 00:10:29;;;;;;;18.80;10.63;;;;;;;6.48;100.00;100326.31;5218769;28;20356;-73
2022/11/15 00:12:59;;;;;;;17.13;10.73;;;;;;;6.61;100.00;100328.56;5223041;28;20096;-73
2022/11/15 00:15:29;;;;;;;16.70;10.32;;;;;;;6.60;100.00;100326.03;5223486;28;20032;-73
2022/11/15 00:18:00;;;;;;;16.30;9.95;;;;;;;6.55;100.00;100325.25;5220537;28;20091;-73
2022/11/15 00:20:30;;;;;;;16.58;10.27;;;;;;;6.48;100.00;100318.53;5212641;28;20049;-73
2022/11/15 00:23:03;;;;;;;18.95;10.60;;;;;;;6.34;100.00;100318.84;5221703;28;20025;-73
2022/11/15 00:25:34;;;;;;;16.98;10.55;;;;;;;6.22;100.00;100315.69;5223104;28;20111;-72
2022/11/15 00:28:04;;;;;;;20.75;11.40;;;;;;;6.19;100.00;100316.59;5222317;28;20465;-73
2022/11/15 00:30:34;;;;;;;18.40;11.07;;;;;;;6.21;100.00;100319.13;5222693;28;20035;-73
2022/11/15 00:33:06;;;;;;;19.20;11.13;;;;;;;6.18;100.00;100316.59;5210570;28;20390;-73
2022/11/15 00:35:36;;;;;;;17.17;10.32;;;;;;;6.11;100.00;100317.66;5213373;28;20109;-72
2022/11/15 00:38:06;;;;;;;18.88;11.05;;;;;;;6.17;100.00;100308.00;5207018;28;20048;-71
2022/11/15 00:40:37;;;;;;;21.10;11.70;;;;;;;6.13;100.00;100315.88;5218688;28;20033;-73
2022/11/15 00:43:07;;;;;;;18.45;10.52;;;;;;;6.16;100.00;100310.59;5222075;28;20048;-73
2022/11/15 00:45:37;;;;;;;20.90;12.27;;;;;;;6.28;100.00;100299.97;5221517;28;20025;-73
2022/11/15 00:48:09;;;;;;;21.58;12.30;;;;;;;6.23;100.00;100317.38;5219919;28;20035;-72
2022/11/15 00:50:39;;;;;;;18.73;10.73;;;;;;;6.28;100.00;100310.34;5209753;28;20108;-73
2022/11/15 00:53:10;;;;;;;20.02;11.85;;;;;;;6.23;100.00;100313.03;5214938;28;20591;-73
2022/11/15 00:55:40;;;;;;;17.55;10.75;;;;;;;6.26;100.00;100306.94;5210112;28;20108;-72
2022/11/15 00:58:10;;;;;;;20.90;11.68;;;;;;;6.26;100.00;100318.16;5217585;28;20040;-73
2022/11/15 01:00:41;;;;;;;20.08;11.93;;;;;;;6.27;100.00;100322.44;5222197;28;20048;-73
2022/11/15 01:03:11;;;;;;;18.33;11.52;;;;;;;6.34;100.00;100320.56;5221964;28;20035;-73
2022/11/15 01:05:41;;;;;;;17.75;11.13;;;;;;;6.35;100.00;100322.28;5220533;28;20478;-73
2022/11/15 01:08:13;;;;;;;18.85;11.23;;;;;;;6.35;100.00;100304.97;5207142;28;20149;-73
2022/11/15 01:10:44;;;;;;;18.60;11.40;;;;;;;6.26;100.00;100322.50;5217871;28;20032;-73
2022/11/15 01:13:14;;;;;;;20.35;11.73;;;;;;;6.17;100.00;100314.91;5221417;28;20017;-73
2022/11/15 01:15:44;;;;;;;17.83;11.15;;;;;;;6.30;100.00;100308.56;5220998;28;20025;-72
2022/11/15 01:18:15;;;;;;;19.90;11.80;;;;;;;6.20;100.00;100302.72;5216956;28;20029;-73
2022/11/15 01:20:45;;;;;;;21.95;11.85;;;;;;;6.09;100.00;100303.84;5221395;28;20104;-73
2022/11/15 01:23:15;;;;;;;19.27;11.18;;;;;;;6.03;100.00;100303.97;5194053;28;20055;-73
2022/11/15 01:25:45;;;;;;;21.88;11.65;;;;;;;6.16;100.00;100301.09;5203591;28;20071;-73
2022/11/15 01:28:16;;;;;;;21.27;11.32;;;;;;;6.11;100.00;100299.47;5206292;28;20212;-73
2022/11/15 01:30:46;;;;;;;20.83;11.38;;;;;;;6.06;100.00;100293.56;5207410;28;20028;-73
2022/11/15 01:33:16;;;;;;;20.67;11.77;;;;;;;5.99;100.00;100287.66;5217631;28;20115;-73
2022/11/15 01:35:46;;;;;;;19.60;11.82;;;;;;;6.02;100.00;100290.16;5219864;28;20033;-73
2022/11/15 01:38:17;;;;;;;21.63;12.23;;;;;;;5.92;100.00;100291.25;5210706;28;20057;-74
2022/11/15 01:40:47;;;;;;;22.15;11.02;;;;;;;5.99;100.00;100297.16;5217619;28;20029;-73
2022/11/15 01:43:20;;;;;;;17.92;10.85;;;;;;;6.06;100.00;100291.78;5220231;28;20021;-73
2022/11/15 01:46:00;;;;;;;19.90;11.60;;;;;;;6.04;100.00;100282.34;5218837;28;20035;-73
2022/11/15 01:48:34;;;;;;;19.58;11.73;;;;;;;6.06;100.00;100285.78;5212581;28;20578;-73
2022/11/15 01:51:10;;;;;;;21.52;11.75;;;;;;;6.20;100.00;100283.69;5215359;28;20047;-73
2022/11/15 01:53:45;;;;;;;19.27;12.00;;;;;;;6.14;100.00;100283.84;5193010;28;20025;-73
2022/11/15 01:56:25;;;;;;;18.98;11.40;;;;;;;6.00;100.00;100289.34;5201261;28;20471;-73
2022/11/15 01:58:58;;;;;;;23.17;11.50;;;;;;;5.95;100.00;100287.72;5201159;28;20443;-72
2022/11/15 02:01:31;;;;;;;19.73;11.77;;;;;;;5.94;100.00;100286.88;5199179;28;20087;-73
2022/11/15 02:04:11;;;;;;;18.40;10.52;;;;;;;6.02;100.00;100281.50;5201060;28;20036;-73
2022/11/15 02:06:43;;;;;;;19.27;10.63;;;;;;;6.09;100.00;100277.91;5200579;28;20056;-73
2022/11/15 02:09:14;;;;;;;17.77;10.60;;;;;;;5.98;100.00;100277.28;5202622;28;20017;-72
2022/11/15 02:11:47;;;;;;;20.42;11.13;;;;;;;5.92;100.00;100274.84;5199154;28;20030;-73
2022/11/15 02:14:20;;;;;;;17.45;10.48;;;;;;;5.86;100.00;100274.94;5200119;28;20018;-73
2022/11/15 02:17:16;;;;;;;18.55;10.82;;;;;;;5.98;100.00;100275.56;5211881;28;20032;-73
2022/11/15 02:20:12;;;;;;;17.38;10.23;;;;;;;6.08;100.00;100260.66;5179072;28;20040;-73
2022/11/15 02:23:13;;;;;;;17.98;10.75;;;;;;;6.10;100.00;100254.53;5213198;28;20017;-73
2022/11/15 02:25:56;;;;;;;15.63;9.48;;;;;;;6.07;100.00;100249.41;5204433;28;20168;-73
2022/11/15 02:28:56;;;;;;;18.85;10.82;;;;;;;5.98;100.00;100257.41;5214125;28;20229;-74
2022/11/15 02:31:59;;;;;;;16.38;9.55;;;;;;;5.91;100.00;100248.03;5212046;28;20124;-73
2022/11/15 02:34:52;;;;;;;17.88;10.30;;;;;;;5.76;100.00;100242.31;5217788;28;20116;-73
2022/11/15 02:37:58;;;;;;;18.38;10.40;;;;;;;5.61;100.00;100247.81;5209375;28;20155;-73
2022/11/15 02:40:44;;;;;;;18.02;10.30;;;;;;;5.74;100.00;100247.53;5216323;28;20437;-73
2022/11/15 02:47:12;;;;;;;17.13;10.50;;;;;;;5.65;100.00;100244.28;5216070;28;20099;-73
2022/11/15 02:49:18;;;;;;;20.02;10.77;;;;;;;5.49;100.00;100232.50;5212960;28;20506;-73
2022/11/15 02:51:51;;;;;;;20.17;10.82;;;;;;;5.44;100.00;100237.78;5207551;28;20104;-73
2022/11/15 02:54:25;;;;;;;17.90;10.15;;;;;;;5.49;100.00;100238.56;5213775;28;20068;-72
2022/11/15 02:57:01;;;;;;;20.40;10.75;;;;;;;5.53;100.00;100232.44;5210465;28;20026;-73
2022/11/15 02:59:46;;;;;;;17.40;10.45;;;;;;;5.53;100.00;100239.34;5219876;28;20104;-73
2022/11/15 03:02:19;;;;;;;18.03;9.87;;;;;;;5.53;100.00;100241.94;5214050;28;20025;-73
2022/11/15 03:04:56;;;;;;;19.85;10.10;;;;;;;5.62;100.00;100242.63;5219195;28;20028;-73
2022/11/15 03:07:42;;;;;;;19.77;10.90;;;;;;;5.72;100.00;100235.50;5212673;28;20104;-73
2022/11/15 03:10:22;;;;;;;15.35;9.90;;;;;;;5.77;100.00;100233.66;5215493;28;20039;-73
2022/11/15 03:13:03;;;;;;;18.80;9.52;;;;;;;5.83;100.00;100236.13;5220677;28;20040;-73
2022/11/15 03:15:41;;;;;;;21.40;10.40;;;;;;;5.85;100.00;100236.94;5203998;28;20285;-73
2022/11/15 03:18:47;;;;;;;17.92;10.00;;;;;;;5.87;100.00;100224.81;5212200;28;20036;-73
2022/11/15 03:21:19;;;;;;;18.77;9.65;;;;;;;5.84;100.00;100219.69;5170714;28;20033;-72
2022/11/15 03:23:52;;;;;;;16.15;9.77;;;;;;;5.95;100.00;100225.50;5211902;28;20033;-74
2022/11/15 03:26:24;;;;;;;17.48;10.02;;;;;;;6.12;100.00;100221.59;5209772;28;20250;-73
2022/11/15 03:29:06;;;;;;;19.30;10.52;;;;;;;6.20;100.00;100221.44;5216961;28;20033;-73
2022/11/15 03:31:47;;;;;;;22.58;11.35;;;;;;;6.32;100.00;100215.97;5218092;28;20100;-73
2022/11/15 03:34:24;;;;;;;17.80;10.75;;;;;;;6.38;100.00;100213.19;5217677;28;20029;-73
2022/11/15 03:36:55;;;;;;;16.98;9.93;;;;;;;6.52;100.00;100217.19;5218188;28;20503;-72
2022/11/15 03:39:27;;;;;;;19.75;11.25;;;;;;;6.54;100.00;100210.22;5214680;28;20175;-73
2022/11/15 03:42:12;;;;;;;19.92;10.32;;;;;;;6.44;100.00;100215.66;5222278;28;20193;-73
2022/11/15 03:44:54;;;;;;;17.95;9.38;;;;;;;6.42;100.00;100209.66;5212467;28;20036;-73
2022/11/15 03:47:31;;;;;;;16.42;9.43;;;;;;;6.47;100.00;100205.22;5221864;28;20112;-72
2022/11/15 03:50:10;;;;;;;18.52;11.95;;;;;;;6.42;100.00;100201.88;5222527;28;20214;-72
2022/11/15 03:52:42;;;;;;;22.75;11.80;;;;;;;6.53;100.00;100192.06;5215252;28;20029;-73
2022/11/15 03:55:19;;;;;;;24.85;14.93;;;;;;;6.20;100.00;100200.69;5214151;28;20024;-73
2022/11/15 03:57:54;;;;;;;17.38;10.63;;;;;;;6.04;100.00;100207.13;5202316;28;20025;-72
2022/11/15 04:00:24;;;;;;;15.90;10.07;;;;;;;6.26;100.00;100203.97;5214579;28;20024;-73
2022/11/15 04:02:55;;;;;;;16.65;9.30;;;;;;;6.40;100.00;100207.09;5221990;28;20040;-73
2022/11/15 04:05:25;;;;;;;16.83;9.02;;;;;;;6.43;100.00;100201.00;5222544;28;20025;-73
2022/11/15 04:07:55;;;;;;;14.40;8.82;;;;;;;6.30;100.00;100207.38;5213943;28;20036;-73
2022/11/15 04:10:26;;;;;;;14.13;9.27;;;;;;;6.28;100.00;100207.38;5217755;28;20024;-73
2022/11/15 04:12:56;;;;;;;15.93;9.32;;;;;;;6.43;100.00;100211.38;5222153;28;20296;-73
2022/11/15 04:15:26;;;;;;;16.92;10.18;;;;;;;6.33;100.00;100208.16;5220955;28;20040;-73
2022/11/15 04:17:57;;;;;;;18.25;10.45;;;;;;;6.43;100.00;100206.19;5212480;28;20040;-73
2022/11/15 04:26:22;;;;;;;19.52;11.00;;;;;;;6.35;100.00;100228.84;5222717;28;20098;-73
2022/11/15 04:31:41;;;;;;;19.10;10.30;;;;;;;6.41;100.00;100228.72;5209235;28;20031;-73
2022/11/15 04:34:11;;;;;;;18.08;10.25;;;;;;;6.33;100.00;100225.44;5222851;28;20486;-73
2022/11/15 04:37:15;;;;;;;16.92;9.80;;;;;;;6.41;100.00;100239.09;5218098;28;20025;-74
2022/11/15 04:39:43;;;;;;;19.85;10.40;;;;;;;6.35;100.00;100231.44;5204170;28;20049;-73
2022/11/15 04:42:13;;;;;;;18.85;10.27;;;;;;;6.35;100.00;100247.03;5218577;28;20082;-73
2022/11/15 04:44:43;;;;;;;20.23;10.63;;;;;;;6.30;100.00;100231.59;5208257;28;20041;-71
2022/11/15 04:47:14;;;;;;;19.40;10.35;;;;;;;6.34;100.00;100240.13;5217655;28;20057;-73
2022/11/15 04:49:44;;;;;;;19.00;10.20;;;;;;;6.63;100.00;100243.72;5211426;28;20148;-73
2022/11/15 04:52:14;;;;;;;18.95;9.93;;;;;;;6.69;100.00;100234.91;5214044;28;20020;-72
2022/11/15 04:54:44;;;;;;;16.35;10.10;;;;;;;6.80;100.00;100232.91;5211203;28;20032;-73
2022/11/15 04:57:15;;;;;;;19.70;10.13;;;;;;;6.79;100.00;100226.00;5208996;28;20778;-73
2022/11/15 04:59:46;;;;;;;17.15;10.45;;;;;;;6.77;100.00;100223.44;5203669;28;20126;-73
2022/11/15 05:02:17;;;;;;;17.20;10.32;;;;;;;6.72;100.00;100233.09;5213177;28;20083;-73
2022/11/15 05:04:47;;;;;;;18.58;10.88;;;;;;;6.74;100.00;100235.69;5222013;28;20106;-73
2022/11/15 05:07:17;;;;;;;20.98;11.35;;;;;;;6.80;100.00;100232.91;5212784;28;20021;-73
2022/11/15 05:09:48;;;;;;;19.55;10.48;;;;;;;6.85;100.00;100228.44;5199614;28;20349;-74
2022/11/15 05:12:18;;;;;;;21.25;10.57;;;;;;;6.89;100.00;100233.53;5202254;28;20518;-73
2022/11/15 05:14:48;;;;;;;17.52;10.23;;;;;;;6.89;100.00;100236.13;5206102;28;20021;-72
2022/11/15 05:17:18;;;;;;;20.63;10.18;;;;;;;6.90;100.00;100237.81;5213538;28;20102;-73
2022/11/15 05:19:49;;;;;;;15.45;9.15;;;;;;;6.97;100.00;100241.94;5221269;28;20036;-73
2022/11/15 05:22:19;;;;;;;16.85;10.18;;;;;;;6.99;100.00;100234.13;5218881;28;20032;-73
2022/11/15 05:24:49;;;;;;;18.13;9.98;;;;;;;7.04;100.00;100234.84;5203335;28;20036;-73
2022/11/15 05:27:20;;;;;;;17.85;9.68;;;;;;;7.07;100.00;100232.19;5207311;28;20119;-73
2022/11/15 05:29:50;;;;;;;15.10;9.60;;;;;;;7.03;100.00;100231.41;5214488;28;20028;-73
2022/11/15 05:32:20;;;;;;;17.95;9.98;;;;;;;7.10;100.00;100222.56;5206511;28;20039;-73
2022/11/15 05:34:51;;;;;;;16.10;9.68;;;;;;;7.03;100.00;100235.75;5221045;28;20058;-73
2022/11/15 05:37:21;;;;;;;16.73;9.50;;;;;;;6.89;100.00;100228.31;5212844;28;20087;-73
2022/11/15 05:39:52;;;;;;;15.43;8.88;;;;;;;6.93;100.00;100222.16;5213845;28;20041;-73
2022/11/15 05:42:22;;;;;;;14.50;8.60;;;;;;;6.80;100.00;100222.53;5209339;28;20033;-73
2022/11/15 05:44:53;;;;;;;16.45;9.40;;;;;;;6.76;100.00;100223.50;5209974;28;20108;-73
2022/11/15 05:47:28;;;;;;;16.00;9.40;;;;;;;6.73;100.00;100236.56;5214823;28;20032;-73
2022/11/15 05:49:58;;;;;;;17.00;10.00;;;;;;;6.73;100.00;100226.19;5211569;28;20025;-73
2022/11/15 05:52:33;;;;;;;16.25;9.45;;;;;;;6.63;100.00;100229.88;5220699;28;20033;-73
2022/11/15 05:55:06;;;;;;;18.33;9.90;;;;;;;6.63;100.00;100224.69;5212096;28;20247;-73
2022/11/15 05:57:36;;;;;;;15.93;10.00;;;;;;;6.59;100.00;100223.09;5218170;28;20093;-73
2022/11/15 06:00:09;;;;;;;15.10;9.05;;;;;;;6.54;100.00;100224.91;5220352;28;20025;-73
2022/11/15 06:02:39;;;;;;;17.00;9.30;;;;;;;6.61;100.00;100231.69;5212905;28;20123;-73
2022/11/15 06:05:09;;;;;;;15.18;9.18;;;;;;;6.57;100.00;100230.06;5220739;28;20124;-73
2022/11/15 06:07:39;;;;;;;17.00;9.70;;;;;;;6.52;100.00;100239.69;5212138;28;20082;-73
2022/11/15 06:10:10;;;;;;;15.10;8.65;;;;;;;6.52;100.00;100237.09;5211135;28;20017;-71
2022/11/15 06:12:40;;;;;;;19.58;9.43;;;;;;;6.52;100.00;100237.09;5211294;28;20464;-73
2022/11/15 06:15:11;;;;;;;15.23;9.10;;;;;;;6.45;100.00;100232.94;5220531;28;20055;-73
2022/11/15 06:17:41;;;;;;;17.25;10.00;;;;;;;6.48;100.00;100231.13;5213945;28;20062;-72
2022/11/15 06:20:11;;;;;;;18.15;9.60;;;;;;;6.26;100.00;100236.88;5207806;28;20025;-73
2022/11/15 06:22:41;;;;;;;18.50;9.60;;;;;;;6.13;100.00;100238.91;5212589;28;20025;-73
2022/11/15 06:25:12;;;;;;;17.85;9.68;;;;;;;6.08;100.00;100239.91;5220074;28;20063;-73
2022/11/15 06:27:42;;;;;;;15.20;9.77;;;;;;;6.06;100.00;100252.88;5206806;28;20048;-72
2022/11/15 06:30:13;;;;;;;18.90;11.32;;;;;;;6.01;100.00;100246.97;5211919;28;20032;-73
2022/11/15 06:32:43;;;;;;;19.02;10.93;;;;;;;6.06;100.00;100252.06;5203135;28;20055;-73
2022/11/15 06:35:13;;;;;;;18.70;10.38;;;;;;;5.95;100.00;100256.63;5197340;28;20152;-73
2022/11/15 06:37:44;;;;;;;18.63;10.65;;;;;;;6.04;100.00;100258.97;5206988;28;20518;-71
2022/11/15 06:40:14;;;;;;;18.35;10.32;;;;;;;6.00;100.00;100260.81;5214150;28;20079;-73
2022/11/15 06:42:45;;;;;;;18.58;10.07;;;;;;;5.94;100.00;100257.50;5209822;28;20253;-73
2022/11/15 06:45:15;;;;;;;15.95;9.25;;;;;;;5.97;100.00;100258.31;5215402;28;20030;-73
2022/11/15 06:47:46;;;;;;;17.85;9.63;;;;;;;5.88;100.00;100263.66;5209715;28;20068;-73
2022/11/15 06:50:17;;;;;;;15.48;9.43;;;;;;;5.91;100.00;100267.94;5216020;28;20056;-73
2022/11/15 06:52:47;;;;;;;16.85;9.82;;;;;;;5.87;100.00;100256.78;5215540;28;20068;-73
2022/11/15 06:55:17;;;;;;;18.58;9.50;;;;;;;5.82;100.00;100270.72;5213891;28;20032;-73
2022/11/15 06:57:49;;;;;;;18.80;10.18;;;;;;;5.79;100.00;100276.84;5216901;28;20053;-73
2022/11/15 07:00:22;;;;;;;18.10;9.88;;;;;;;5.78;100.00;100274.25;5209306;28;20504;-73
2022/11/15 07:02:52;;;;;;;19.30;10.20;;;;;;;5.81;100.00;100281.97;5217858;28;20086;-73
2022/11/15 07:05:22;;;;;;;16.70;9.30;;;;;;;5.79;100.00;100289.81;5209123;28;20025;-73
2022/11/15 07:07:54;;;;;;;17.30;9.63;;;;;;;5.83;100.00;100298.34;5212126;28;20048;-73
2022/11/15 07:10:26;;;;;;;18.30;10.07;;;;;;;5.72;100.00;100298.56;5218095;28;20020;-73
2022/11/15 07:12:56;;;;;;;15.93;9.23;;;;;;;6.04;100.00;100295.28;5213718;28;20087;-73
2022/11/15 07:15:26;;;;;;;15.70;8.98;;;;;;;5.93;100.00;100302.47;5220569;28;20379;-73
2022/11/15 07:18:00;;;;;;;17.50;9.10;;;;;;;6.03;100.00;100294.47;5211868;28;20041;-73
2022/11/15 07:20:31;;;;;;;16.58;9.05;;;;;;;6.13;100.00;100295.97;5214509;28;20033;-73
2022/11/15 07:23:03;;;;;;;14.60;8.68;;;;;;;6.27;100.00;100308.63;5212879;28;20054;-73
2022/11/15 07:25:34;;;;;;;17.60;9.77;;;;;;;6.41;100.00;100302.22;5215826;28;20029;-73
2022/11/15 07:28:04;;;;;;;14.35;8.82;;;;;;;6.36;100.00;100309.28;5213186;28;20423;-73
2022/11/15 07:30:34;;;;;;;17.23;9.55;;;;;;;6.45;100.00;100314.25;5215774;28;20028;-73
2022/11/15 07:33:05;;;;;;;14.63;8.80;;;;;;;6.59;100.00;100309.59;5215604;28;20033;-73
2022/11/15 07:35:35;;;;;;;17.00;8.75;;;;;;;6.68;100.00;100305.91;5211986;28;20052;-73
2022/11/15 07:38:05;;;;;;;14.88;8.60;;;;;;;7.03;100.00;100298.97;5206632;28;20499;-74
2022/11/15 07:40:36;;;;;;;15.77;8.68;;;;;;;7.02;100.00;100302.47;5211529;28;20131;-73
2022/11/15 07:43:08;;;;;;;16.08;8.85;;;;;;;7.10;100.00;100295.31;5222606;28;20021;-73
2022/11/15 07:45:43;;;;;;;14.20;8.48;;;;;;;7.29;100.00;100293.91;5213617;28;20045;-73
2022/11/15 07:48:16;;;;;;;15.70;8.48;;;;;;;7.89;100.00;100290.44;5213838;28;20514;-73
2022/11/15 07:50:47;;;;;;;13.13;7.32;;;;;;;8.77;100.00;100284.25;5216602;28;20033;-73
2022/11/15 07:53:17;;;;;;;13.18;7.18;;;;;;;9.74;100.00;100277.28;5223367;28;20474;-71
2022/11/15 07:55:48;;;;;;;10.95;6.43;;;;;;;10.51;100.00;100273.41;5223280;28;20060;-74
2022/11/15 07:58:18;;;;;;;10.50;6.22;;;;;;;11.11;99.16;100270.88;5222505;28;20108;-73
2022/11/15 08:00:48;;;;;;;8.95;4.88;;;;;;;11.97;99.93;100258.25;5221959;28;20529;-73
2022/11/15 08:03:19;;;;;;;9.70;5.28;;;;;;;12.50;93.68;100253.13;5207534;28;20048;-73
2022/11/15 08:05:52;;;;;;;7.03;4.32;;;;;;;13.12;94.01;100247.34;5214495;28;20057;-74
2022/11/15 08:08:22;;;;;;;7.75;4.43;;;;;;;13.39;87.25;100239.81;5212427;28;20028;-74
2022/11/15 08:10:52;;;;;;;9.27;4.72;;;;;;;12.82;89.14;100244.53;5213683;28;20051;-74
2022/11/15 08:13:23;;;;;;;7.20;4.13;;;;;;;14.39;86.67;100225.53;5213506;28;20083;-74
2022/11/15 08:16:01;;;;;;;6.30;4.20;;;;;;;14.56;85.30;100228.06;5219169;28;20026;-74
2022/11/15 08:18:31;;;;;;;6.28;3.95;;;;;;;15.24;81.44;100216.03;5217266;28;20387;-73
2022/11/15 08:21:01;;;;;;;7.95;4.35;;;;;;;15.11;82.86;100215.06;5223264;28;20082;-74
2022/11/15 08:23:32;;;;;;;8.70;4.05;;;;;;;15.51;82.04;100205.63;5222085;28;20033;-73
2022/11/15 08:26:03;;;;;;;7.03;4.10;;;;;;;15.09;81.89;100200.28;5221301;28;20029;-73
2022/11/15 08:28:33;;;;;;;7.82;3.85;;;;;;;13.87;89.40;100216.16;5222072;28;20025;-74
2022/11/15 08:31:04;;;;;;;8.05;3.72;;;;;;;13.04;94.06;100207.50;5219669;28;20337;-73
2022/11/15 08:33:35;;;;;;;5.18;3.55;;;;;;;12.05;100.00;100218.63;5222203;28;20029;-73
2022/11/15 08:36:05;;;;;;;7.32;3.65;;;;;;;11.73;100.00;100214.03;5221334;28;20048;-73
2022/11/15 08:38:36;;;;;;;8.25;4.03;;;;;;;11.81;100.00;100207.50;5210157;28;20029;-73
2022/11/15 08:41:06;;;;;;;9.88;3.72;;;;;;;11.51;100.00;100218.50;5216532;28;20398;-73
2022/11/15 08:43:37;;;;;;;6.10;4.07;;;;;;;11.31;100.00;100214.16;5210666;28;20065;-74
2022/11/15 08:46:12;;;;;;;7.65;4.03;;;;;;;11.03;100.00;100218.06;5220636;28;20021;-73
2022/11/15 08:48:42;;;;;;;9.82;3.85;;;;;;;10.85;100.00;100218.00;5213956;28;20112;-73
2022/11/15 08:51:13;;;;;;;7.93;3.97;;;;;;;10.97;100.00;100209.63;5221516;28;20264;-73
2022/11/15 08:53:43;;;;;;;6.65;3.67;;;;;;;10.97;100.00;100207.00;5209309;28;20020;-73
2022/11/15 08:56:14;;;;;;;7.43;3.97;;;;;;;11.06;100.00;100200.47;5213125;28;20227;-73
2022/11/15 08:58:45;;;;;;;6.63;4.03;;;;;;;11.02;100.00;100212.00;5210589;28;20022;-73
2022/11/15 09:01:17;;;;;;;7.90;4.43;;;;;;;11.10;100.00;100196.81;5212971;28;20052;-73
2022/11/15 09:03:48;;;;;;;8.57;4.45;;;;;;;10.96;100.00;100202.69;5221607;28;20029;-73
2022/11/15 09:06:18;;;;;;;10.45;4.70;;;;;;;10.82;100.00;100199.84;5220218;28;20020;-73
2022/11/15 09:08:48;;;;;;;9.02;4.97;;;;;;;10.91;100.00;100202.03;5211164;28;20022;-73
2022/11/15 09:11:21;;;;;;;8.30;5.15;;;;;;;10.74;100.00;100202.78;5214228;28;20036;-72
2022/11/15 09:13:51;;;;;;;7.75;4.60;;;;;;;10.60;100.00;100199.88;5212015;28;20518;-73
2022/11/15 09:16:21;;;;;;;11.07;5.13;;;;;;;10.53;100.00;100205.44;5203081;28;20079;-72
2022/11/15 09:18:54;;;;;;;8.43;4.93;;;;;;;10.45;100.00;100197.91;5220532;28;20043;-73
2022/11/15 09:21:24;;;;;;;9.13;4.97;;;;;;;10.51;100.00;100207.25;5221272;28;20103;-73
2022/11/15 09:23:54;;;;;;;9.45;5.35;;;;;;;10.36;100.00;100205.25;5221013;28;20120;-72
2022/11/15 09:26:25;;;;;;;10.07;4.65;;;;;;;10.45;100.00;100202.25;5221343;28;20478;-73
2022/11/15 09:28:55;;;;;;;10.15;5.38;;;;;;;10.38;100.00;100213.88;5221135;28;20059;-73
2022/11/15 09:31:26;;;;;;;9.90;4.72;;;;;;;10.35;100.00;100207.00;5216872;28;20025;-73
2022/11/15 09:33:56;;;;;;;10.10;5.10;;;;;;;10.41;100.00;100214.63;5221361;28;20115;-73
2022/11/15 09:36:26;;;;;;;8.85;5.15;;;;;;;10.33;100.00;100213.22;5217631;28;20086;-71
2022/11/15 09:39:00;;;;;;;9.80;5.40;;;;;;;10.18;100.00;100216.44;5211273;28;20479;-73
2022/11/15 09:41:36;;;;;;;10.10;5.30;;;;;;;10.17;100.00;100218.19;5212614;28;20087;-73
2022/11/15 09:44:26;;;;;;;10.00;5.65;;;;;;;10.28;100.00;100209.94;5211896;28;20031;-73
2022/11/15 09:47:20;;;;;;;10.73;5.40;;;;;;;10.35;100.00;100204.41;5217197;28;20033;-73
2022/11/15 09:49:55;;;;;;;9.50;5.28;;;;;;;10.67;100.00;100208.31;5216184;28;20013;-73
2022/11/15 09:52:25;;;;;;;12.10;6.20;;;;;;;11.24;100.00;100197.06;5221327;28;20025;-73
2022/11/15 09:54:56;;;;;;;8.65;5.28;;;;;;;11.33;100.00;100203.63;5215525;28;20052;-73
2022/11/15 09:57:35;;;;;;;9.20;5.20;;;;;;;11.44;100.00;100198.78;5210850;28;20300;-73
2022/11/15 10:00:27;;;;;;;8.75;5.00;;;;;;;11.61;100.00;100199.75;5220531;28;20029;-73
2022/11/15 10:03:11;;;;;;;10.15;5.15;;;;;;;11.85;100.00;100193.38;5217939;28;20195;-74
2022/11/15 10:05:44;;;;;;;10.10;5.47;;;;;;;12.19;100.00;100185.63;5213202;28;20486;-74
2022/11/15 10:08:34;;;;;;;9.07;4.70;;;;;;;12.28;100.00;100189.56;5211759;28;20145;-73
2022/11/15 10:11:10;;;;;;;9.38;5.00;;;;;;;12.36;100.00;100193.53;5214247;28;20028;-73
2022/11/15 10:13:44;;;;;;;7.25;4.30;;;;;;;12.52;100.00;100186.59;5206216;28;20036;-72
2022/11/15 10:16:48;;;;;;;9.27;4.85;;;;;;;12.40;100.00;100191.56;5220073;28;20086;-74
2022/11/15 10:19:36;;;;;;;10.38;4.95;;;;;;;12.48;100.00;100185.03;5215311;28;20036;-73
2022/11/15 10:22:27;;;;;;;7.45;4.90;;;;;;;12.52;100.00;100176.13;5220476;28;20573;-73
2022/11/15 10:25:22;;;;;;;7.75;4.50;;;;;;;12.73;100.00;100169.78;5217131;28;20040;-73
2022/11/15 10:27:55;;;;;;;6.57;4.38;;;;;;;12.70;100.00;100164.72;5215823;28;20041;-73
2022/11/15 10:30:35;;;;;;;9.00;4.55;;;;;;;12.72;100.00;100162.00;5216658;28;20021;-73
2022/11/15 10:33:23;;;;;;;10.05;4.03;;;;;;;12.85;100.00;100158.66;5216254;28;20283;-73
2022/11/15 10:36:09;;;;;;;9.00;4.07;;;;;;;13.02;100.00;100150.78;5214881;28;20106;-74
2022/11/15 10:38:48;;;;;;;6.13;3.70;;;;;;;13.24;100.00;100140.88;5207617;28;20029;-73
2022/11/15 10:41:19;;;;;;;6.00;3.42;;;;;;;13.20;100.00;100148.06;5211911;28;20517;-73
2022/11/15 10:44:17;;;;;;;11.77;3.65;;;;;;;13.38;100.00;100141.84;5209401;28;20068;-73
2022/11/15 10:46:54;;;;;;;6.72;3.47;;;;;;;13.58;100.00;100135.50;5214440;28;20352;-73
2022/11/15 10:49:29;;;;;;;5.93;2.88;;;;;;;13.65;100.00;100128.97;5218941;28;20029;-73
2022/11/15 10:52:14;;;;;;;5.25;2.97;;;;;;;13.70;100.00;100127.78;5213098;28;20456;-74
2022/11/15 10:54:58;;;;;;;6.25;3.45;;;;;;;13.76;100.00;100130.06;5206638;28;20039;-73
2022/11/15 10:57:39;;;;;;;5.30;3.13;;;;;;;13.76;100.00;100121.38;5211344;28;20025;-73
2022/11/15 11:00:09;;;;;;;4.78;3.00;;;;;;;13.72;100.00;100117.22;5211257;28;20517;-73
2022/11/15 11:02:57;;;;;;;6.57;3.38;;;;;;;13.81;100.00;100108.81;5219058;28;20032;-73
2022/11/15 11:05:38;;;;;;;7.90;2.78;;;;;;;13.77;100.00;100116.00;5219928;28;20036;-73
2022/11/15 11:08:15;;;;;;;6.35;3.00;;;;;;;13.87;100.00;100111.09;5203204;28;20116;-74
2022/11/15 11:10:59;;;;;;;7.25;3.30;;;;;;;13.84;100.00;100117.38;5208609;28;20113;-73
2022/11/15 11:13:32;;;;;;;4.32;2.55;;;;;;;13.80;100.00;100118.50;5208952;28;20055;-73
2022/11/15 11:16:14;;;;;;;4.97;2.58;;;;;;;13.77;100.00;100109.94;5218962;28;20028;-73
2022/11/15 11:19:03;;;;;;;6.32;3.13;;;;;;;13.68;100.00;100113.03;5212761;28;20025;-74
2022/11/15 11:21:39;;;;;;;6.60;3.22;;;;;;;13.74;100.00;100115.34;5208361;28;20061;-73
2022/11/15 11:24:25;;;;;;;9.82;3.42;;;;;;;13.72;100.00;100106.72;5212511;28;20112;-73
2022/11/15 11:27:18;;;;;;;;;;;;;;;13.64;100.00;100119.41;5219401;28;20032;-73
2022/11/15 11:30:01;;;;;;;6.00;3.50;;;;;;;13.50;100.00;100112.31;5211629;28;19969;-73
2022/11/15 11:32:55;;;;;;;5.85;3.20;;;;;;;13.48;100.00;100116.78;5215906;28;20432;-73
2022/11/15 11:35:28;;;;;;;9.15;3.47;;;;;;;13.36;100.00;100113.97;5219532;28;20029;-74
2022/11/15 11:38:11;;;;;;;7.05;3.60;;;;;;;13.32;100.00;100118.56;5214025;28;20035;-73
2022/11/15 11:40:59;;;;;;;6.05;3.67;;;;;;;13.15;100.00;100110.72;5214000;28;20104;-71
2022/11/15 11:44:03;;;;;;;7.85;4.00;;;;;;;13.16;100.00;100119.44;5212279;28;20493;-73
2022/11/15 11:46:52;;;;;;;7.88;3.90;;;;;;;13.10;100.00;100111.91;5221505;28;20041;-73
2022/11/15 11:49:33;;;;;;;6.50;3.47;;;;;;;13.11;100.00;100105.72;5207425;28;20032;-73
2022/11/15 11:52:33;;;;;;;5.63;3.08;;;;;;;13.21;100.00;100117.44;5220429;28;20028;-73
2022/11/15 11:55:18;;;;;;;6.97;3.83;;;;;;;13.25;100.00;100108.47;5183152;28;20040;-73
2022/11/15 11:58:15;;;;;;;6.78;3.78;;;;;;;13.23;100.00;100113.78;5213415;28;20198;-73
2022/11/15 12:01:05;;;;;;;7.28;3.83;;;;;;;13.40;100.00;100107.63;5216803;28;20104;-73